SWA2098 KLBB-KDEN
Flight info
| Callsign | SWA2098 |
|---|---|
| Flight time | N/A |
| Altitude | 36000 |
| Route | DHT ZIGEE NIIXX4 |
| Aircraft | B737/M-SDE2E3GIJ4RWZ/LB1D1 |
Departure
| Time | N/A |
|---|---|
| Airport | Lubbock Preston Smith International Airport (KLBB) |
Arrival
| Time | 2026-05-03 20:16 |
|---|---|
| Airport | Denver International Airport (KDEN) |
| Time | Latitude | Longitude | Altitude | Speed | Heading |
|---|---|---|---|---|---|
| 2026-05-03 20:15 | 39.87708 | -104.59725 | 5672 ft | 146 kts | 274° |
| 2026-05-03 20:15 | 39.87721 | -104.61059 | 5465 ft | 147 kts | 268° |
| 2026-05-03 20:15 | 39.87722 | -104.62387 | 5324 ft | 143 kts | 270° |
| 2026-05-03 20:15 | 39.87734 | -104.63548 | 5327 ft | 113 kts | 271° |
| 2026-05-03 20:16 | 39.87743 | -104.64375 | 5336 ft | 69 kts | 270° |
| 2026-05-03 20:16 | 39.87741 | -104.64860 | 5345 ft | 36 kts | 261° |
| 2026-05-03 20:16 | 39.87664 | -104.65142 | 5347 ft | 32 kts | 238° |
| 2026-05-03 20:16 | 39.87585 | -104.65389 | 5350 ft | 29 kts | 265° |
| 2026-05-03 20:17 | 39.87587 | -104.65640 | 5353 ft | 27 kts | 272° |
| 2026-05-03 20:17 | 39.87589 | -104.65872 | 5357 ft | 25 kts | 270° |
| 2026-05-03 20:17 | 39.87590 | -104.66089 | 5360 ft | 23 kts | 271° |
| 2026-05-03 20:17 | 39.87541 | -104.66212 | 5360 ft | 17 kts | 185° |
| 2026-05-03 20:18 | 39.87467 | -104.66309 | 5359 ft | 16 kts | 227° |
| 2026-05-03 20:18 | 39.87374 | -104.66329 | 5361 ft | 15 kts | 180° |
| 2026-05-03 20:18 | 39.87272 | -104.66331 | 5360 ft | 15 kts | 181° |
| 2026-05-03 20:18 | 39.87157 | -104.66333 | 5365 ft | 20 kts | 180° |
| 2026-05-03 20:19 | 39.87009 | -104.66335 | 5366 ft | 21 kts | 180° |
| 2026-05-03 20:19 | 39.86843 | -104.66337 | 5372 ft | 26 kts | 180° |
| 2026-05-03 20:19 | 39.86660 | -104.66339 | 5375 ft | 26 kts | 180° |
| 2026-05-03 20:19 | 39.86487 | -104.66341 | 5375 ft | 24 kts | 180° |
| 2026-05-03 20:20 | 39.86325 | -104.66343 | 5376 ft | 23 kts | 181° |
| 2026-05-03 20:20 | 39.86169 | -104.66345 | 5379 ft | 23 kts | 180° |
| 2026-05-03 20:20 | 39.86040 | -104.66360 | 5381 ft | 16 kts | 211° |
| 2026-05-03 20:20 | 39.86018 | -104.66493 | 5380 ft | 16 kts | 275° |
| 2026-05-03 20:21 | 39.86059 | -104.66617 | 5378 ft | 15 kts | 270° |
| 2026-05-03 20:21 | 39.86059 | -104.66751 | 5378 ft | 14 kts | 269° |
| 2026-05-03 20:21 | 39.86060 | -104.66877 | 5378 ft | 14 kts | 274° |
| 2026-05-03 20:21 | 39.86107 | -104.66963 | 5377 ft | 12 kts | 14° |
| 2026-05-03 20:22 | 39.86195 | -104.66949 | 5372 ft | 13 kts | 0° |
| 2026-05-03 20:22 | 39.86246 | -104.66949 | 5376 ft | 3 kts | 360° |
| 2026-05-03 20:22 | 39.86250 | -104.66949 | 5376 ft | 0 kts | 360° |